sensor_id;sensor_type;location;lat;lon;timestamp;temperature;humidity
11242;DHT22;5678;52.370;9.006;2024-02-26T06:15:24;2.40;99.90
11242;DHT22;5678;52.370;9.006;2024-02-26T06:17:52;2.30;99.90
11242;DHT22;5678;52.370;9.006;2024-02-26T06:20:21;2.30;99.90
11242;DHT22;5678;52.370;9.006;2024-02-26T06:22:49;3.00;99.90
11242;DHT22;5678;52.370;9.006;2024-02-26T06:25:17;2.20;99.90
11242;DHT22;5678;52.370;9.006;2024-02-26T06:27:45;2.80;99.90
11242;DHT22;5678;52.370;9.006;2024-02-26T06:30:13;2.40;99.90
11242;DHT22;5678;52.370;9.006;2024-02-26T06:32:42;2.40;99.90
11242;DHT22;5678;52.370;9.006;2024-02-26T06:35:11;2.10;99.90
11242;DHT22;5678;52.370;9.006;2024-02-26T06:37:39;2.00;99.90
11242;DHT22;5678;52.370;9.006;2024-02-26T06:40:08;3.60;99.90
11242;DHT22;5678;52.370;9.006;2024-02-26T06:42:36;2.40;99.90
11242;DHT22;5678;52.370;9.006;2024-02-26T06:45:05;2.00;99.90
11242;DHT22;5678;52.370;9.006;2024-02-26T06:47:34;2.40;99.90
11242;DHT22;5678;52.370;9.006;2024-02-26T06:50:04;2.40;99.90
11242;DHT22;5678;52.370;9.006;2024-02-26T06:52:32;2.40;99.90
11242;DHT22;5678;52.370;9.006;2024-02-26T06:55:00;2.40;99.90
11242;DHT22;5678;52.370;9.006;2024-02-26T06:57:28;2.40;99.90
11242;DHT22;5678;52.370;9.006;2024-02-26T06:59:57;2.40;99.90
11242;DHT22;5678;52.370;9.006;2024-02-26T07:02:26;2.50;99.90
11242;DHT22;5678;52.370;9.006;2024-02-26T07:04:54;2.50;99.90
11242;DHT22;5678;52.370;9.006;2024-02-26T07:07:24;2.50;99.90
11242;DHT22;5678;52.370;9.006;2024-02-26T07:09:52;2.30;99.90
11242;DHT22;5678;52.370;9.006;2024-02-26T07:12:21;2.50;99.90
11242;DHT22;5678;52.370;9.006;2024-02-26T07:14:49;2.90;99.90
11242;DHT22;5678;52.370;9.006;2024-02-26T07:17:19;2.60;99.90
11242;DHT22;5678;52.370;9.006;2024-02-26T07:19:47;2.40;99.90
11242;DHT22;5678;52.370;9.006;2024-02-26T07:22:15;2.30;99.90
11242;DHT22;5678;52.370;9.006;2024-02-26T07:24:44;2.70;99.90
11242;DHT22;5678;52.370;9.006;2024-02-26T07:27:13;2.70;99.90
11242;DHT22;5678;52.370;9.006;2024-02-26T07:29:44;3.70;1.00
11242;DHT22;5678;52.370;9.006;2024-02-26T07:32:12;2.80;1.00
11242;DHT22;5678;52.370;9.006;2024-02-26T07:34:40;2.90;1.00
11242;DHT22;5678;52.370;9.006;2024-02-26T07:37:11;2.90;1.00
11242;DHT22;5678;52.370;9.006;2024-02-26T07:39:39;3.00;1.00
11242;DHT22;5678;52.370;9.006;2024-02-26T07:42:09;2.60;99.90
11242;DHT22;5678;52.370;9.006;2024-02-26T07:44:37;3.00;99.90
11242;DHT22;5678;52.370;9.006;2024-02-26T07:47:07;2.80;59.10
11242;DHT22;5678;52.370;9.006;2024-02-26T07:49:35;3.00;1.00
11242;DHT22;5678;52.370;9.006;2024-02-26T07:52:05;3.10;1.00
11242;DHT22;5678;52.370;9.006;2024-02-26T07:54:33;3.10;1.00
11242;DHT22;5678;52.370;9.006;2024-02-26T07:57:02;3.00;1.00
11242;DHT22;5678;52.370;9.006;2024-02-26T07:59:33;3.10;1.00
11242;DHT22;5678;52.370;9.006;2024-02-26T08:02:01;3.20;99.90
11242;DHT22;5678;52.370;9.006;2024-02-26T08:04:29;3.30;99.90
11242;DHT22;5678;52.370;9.006;2024-02-26T08:06:57;3.30;99.90
11242;DHT22;5678;52.370;9.006;2024-02-26T08:09:26;3.50;1.00
11242;DHT22;5678;52.370;9.006;2024-02-26T08:11:54;3.00;1.00
11242;DHT22;5678;52.370;9.006;2024-02-26T08:14:22;3.40;1.00
11242;DHT22;5678;52.370;9.006;2024-02-26T08:16:52;3.40;1.00
11242;DHT22;5678;52.370;9.006;2024-02-26T08:19:20;3.50;90.80
11242;DHT22;5678;52.370;9.006;2024-02-26T08:21:48;3.50;1.00
11242;DHT22;5678;52.370;9.006;2024-02-26T08:24:16;3.50;1.00
11242;DHT22;5678;52.370;9.006;2024-02-26T08:26:44;3.60;1.00
11242;DHT22;5678;52.370;9.006;2024-02-26T08:29:12;3.30;1.00
11242;DHT22;5678;52.370;9.006;2024-02-26T08:31:41;3.40;99.90
11242;DHT22;5678;52.370;9.006;2024-02-26T08:34:10;3.70;1.00
11242;DHT22;5678;52.370;9.006;2024-02-26T08:36:38;3.80;99.90
11242;DHT22;5678;52.370;9.006;2024-02-26T08:39:06;3.80;99.90
11242;DHT22;5678;52.370;9.006;2024-02-26T08:41:36;3.60;99.90
11242;DHT22;5678;52.370;9.006;2024-02-26T08:44:04;3.80;1.00
11242;DHT22;5678;52.370;9.006;2024-02-26T08:46:32;3.80;55.20
11242;DHT22;5678;52.370;9.006;2024-02-26T08:49:00;3.90;1.00
11242;DHT22;5678;52.370;9.006;2024-02-26T08:51:30;3.70;1.00
11242;DHT22;5678;52.370;9.006;2024-02-26T08:53:58;3.80;99.90
11242;DHT22;5678;52.370;9.006;2024-02-26T08:56:26;3.80;1.00
11242;DHT22;5678;52.370;9.006;2024-02-26T08:58:54;3.80;1.00
11242;DHT22;5678;52.370;9.006;2024-02-26T09:01:24;3.90;1.00
11242;DHT22;5678;52.370;9.006;2024-02-26T09:03:52;3.90;1.00
11242;DHT22;5678;52.370;9.006;2024-02-26T09:06:20;4.10;1.00
11242;DHT22;5678;52.370;9.006;2024-02-26T09:08:49;4.10;99.90
11242;DHT22;5678;52.370;9.006;2024-02-26T09:11:17;4.50;99.90
11242;DHT22;5678;52.370;9.006;2024-02-26T09:13:45;4.10;1.00
11242;DHT22;5678;52.370;9.006;2024-02-26T09:16:14;4.20;68.20
11242;DHT22;5678;52.370;9.006;2024-02-26T09:18:42;4.40;1.00
11242;DHT22;5678;52.370;9.006;2024-02-26T09:21:11;4.20;1.00
11242;DHT22;5678;52.370;9.006;2024-02-26T09:23:39;4.40;99.90
11242;DHT22;5678;52.370;9.006;2024-02-26T09:26:08;4.30;99.90
11242;DHT22;5678;52.370;9.006;2024-02-26T09:28:36;4.30;1.00
11242;DHT22;5678;52.370;9.006;2024-02-26T09:31:05;4.30;1.00
11242;DHT22;5678;52.370;9.006;2024-02-26T09:33:33;4.30;1.00
11242;DHT22;5678;52.370;9.006;2024-02-26T09:36:02;4.40;1.00
11242;DHT22;5678;52.370;9.006;2024-02-26T09:38:30;4.40;1.00
11242;DHT22;5678;52.370;9.006;2024-02-26T09:41:16;4.40;1.00
11242;DHT22;5678;52.370;9.006;2024-02-26T09:43:45;4.50;1.00
11242;DHT22;5678;52.370;9.006;2024-02-26T09:46:13;4.60;1.00
11242;DHT22;5678;52.370;9.006;2024-02-26T09:48:44;4.70;1.00
11242;DHT22;5678;52.370;9.006;2024-02-26T09:51:14;4.70;1.00
11242;DHT22;5678;52.370;9.006;2024-02-26T09:53:43;4.70;99.90
11242;DHT22;5678;52.370;9.006;2024-02-26T09:56:12;4.90;99.90
11242;DHT22;5678;52.370;9.006;2024-02-26T09:58:42;4.70;99.90
11242;DHT22;5678;52.370;9.006;2024-02-26T10:01:16;4.80;1.00
11242;DHT22;5678;52.370;9.006;2024-02-26T10:03:49;4.80;1.00
11242;DHT22;5678;52.370;9.006;2024-02-26T10:06:19;4.80;99.90
11242;DHT22;5678;52.370;9.006;2024-02-26T10:08:47;4.90;99.90
11242;DHT22;5678;52.370;9.006;2024-02-26T10:11:17;4.80;99.90
11242;DHT22;5678;52.370;9.006;2024-02-26T10:13:47;5.00;99.90
11242;DHT22;5678;52.370;9.006;2024-02-26T10:16:16;5.50;99.90
11242;DHT22;5678;52.370;9.006;2024-02-26T10:18:48;5.10;50.30
11242;DHT22;5678;52.370;9.006;2024-02-26T10:21:22;5.10;51.30
11242;DHT22;5678;52.370;9.006;2024-02-26T10:23:51;5.70;1.00
11242;DHT22;5678;52.370;9.006;2024-02-26T10:26:20;5.80;1.00
11242;DHT22;5678;52.370;9.006;2024-02-26T10:28:50;5.70;1.00
11242;DHT22;5678;52.370;9.006;2024-02-26T10:31:21;6.40;1.00
11242;DHT22;5678;52.370;9.006;2024-02-26T10:33:49;6.40;1.00
11242;DHT22;5678;52.370;9.006;2024-02-26T10:36:18;5.80;1.00
11242;DHT22;5678;52.370;9.006;2024-02-26T10:38:48;5.70;1.00
11242;DHT22;5678;52.370;9.006;2024-02-26T10:41:18;5.90;1.00
11242;DHT22;5678;52.370;9.006;2024-02-26T10:43:47;6.00;1.00
11242;DHT22;5678;52.370;9.006;2024-02-26T10:46:16;6.00;1.00
11242;DHT22;5678;52.370;9.006;2024-02-26T10:48:49;6.10;1.00
11242;DHT22;5678;52.370;9.006;2024-02-26T10:51:20;6.10;1.00
11242;DHT22;5678;52.370;9.006;2024-02-26T10:53:51;6.30;1.00
11242;DHT22;5678;52.370;9.006;2024-02-26T10:56:28;6.40;1.00
11242;DHT22;5678;52.370;9.006;2024-02-26T10:58:57;6.60;1.00
11242;DHT22;5678;52.370;9.006;2024-02-26T11:01:28;8.20;1.00
11242;DHT22;5678;52.370;9.006;2024-02-26T11:04:00;6.90;1.00
11242;DHT22;5678;52.370;9.006;2024-02-26T11:06:28;6.90;1.00
11242;DHT22;5678;52.370;9.006;2024-02-26T11:08:58;7.10;1.00
11242;DHT22;5678;52.370;9.006;2024-02-26T11:11:27;7.20;1.00
11242;DHT22;5678;52.370;9.006;2024-02-26T11:13:56;6.90;99.90
11242;DHT22;5678;52.370;9.006;2024-02-26T11:16:27;7.20;99.90
11242;DHT22;5678;52.370;9.006;2024-02-26T11:18:55;6.80;1.00
11242;DHT22;5678;52.370;9.006;2024-02-26T11:21:25;7.20;99.90
11242;DHT22;5678;52.370;9.006;2024-02-26T11:24:07;7.00;99.90
11242;DHT22;5678;52.370;9.006;2024-02-26T11:26:39;7.00;99.90
11242;DHT22;5678;52.370;9.006;2024-02-26T11:29:09;7.20;99.90
11242;DHT22;5678;52.370;9.006;2024-02-26T11:31:40;7.30;99.90
11242;DHT22;5678;52.370;9.006;2024-02-26T11:34:09;7.30;99.90
11242;DHT22;5678;52.370;9.006;2024-02-26T11:36:37;7.40;99.90
11242;DHT22;5678;52.370;9.006;2024-02-26T11:39:06;7.50;99.90
11242;DHT22;5678;52.370;9.006;2024-02-26T11:41:36;7.50;99.90
11242;DHT22;5678;52.370;9.006;2024-02-26T11:44:06;7.50;99.90
11242;DHT22;5678;52.370;9.006;2024-02-26T11:46:41;7.50;99.90
11242;DHT22;5678;52.370;9.006;2024-02-26T11:49:31;7.80;99.90
11242;DHT22;5678;52.370;9.006;2024-02-26T11:52:05;7.50;99.90
11242;DHT22;5678;52.370;9.006;2024-02-26T11:54:43;7.60;99.90
11242;DHT22;5678;52.370;9.006;2024-02-26T11:57:26;7.60;99.90
11242;DHT22;5678;52.370;9.006;2024-02-26T12:00:03;7.60;99.90
11242;DHT22;5678;52.370;9.006;2024-02-26T12:02:44;7.80;99.90
11242;DHT22;5678;52.370;9.006;2024-02-26T12:05:14;7.80;99.90
11242;DHT22;5678;52.370;9.006;2024-02-26T12:07:47;7.70;99.90
11242;DHT22;5678;52.370;9.006;2024-02-26T12:10:21;7.90;99.90
11242;DHT22;5678;52.370;9.006;2024-02-26T12:12:58;7.70;99.90
